Time;durP1;ratioP1;P1;durP2;ratioP2;P2;SDS_P1;SDS_P2;PMS_P1;PMS_P2;Temp;Humidity;BMP_temperature;BMP_pressure;BME280_temperature;BME280_humidity;BME280_pressure;Samples;Min_cycle;Max_cycle;Signal;HPM_P1;HPM_P2
2023/01/02 00:00:32;;;;;;;0.00;0.00;;;;;;;5.31;80.10;100297.47;7357350;19;20026;-57
2023/01/02 00:02:57;;;;;;;0.10;0.10;;;;;;;5.31;80.30;100306.09;7359565;19;20750;-58
2023/01/02 00:05:22;;;;;;;0.00;0.00;;;;;;;5.31;80.33;100303.53;7359287;19;20096;-59
2023/01/02 00:07:48;;;;;;;0.00;0.00;;;;;;;5.29;80.14;100301.81;7357676;19;20010;-58
2023/01/02 00:10:13;;;;;;;0.10;0.10;;;;;;;5.20;80.11;100282.03;7355161;19;20466;-58
2023/01/02 00:12:39;;;;;;;0.10;0.10;;;;;;;5.33;80.24;100317.34;7353561;19;20011;-58
2023/01/02 00:15:05;;;;;;;0.00;0.00;;;;;;;5.20;80.29;100287.22;7359167;19;20032;-58
2023/01/02 00:17:30;;;;;;;0.10;0.10;;;;;;;5.33;80.31;100309.56;7360119;19;20021;-58
2023/01/02 00:19:56;;;;;;;0.00;0.00;;;;;;;5.32;80.03;100313.03;7344789;19;20018;-58
2023/01/02 00:22:21;;;;;;;0.03;0.03;;;;;;;5.32;80.04;100317.31;7358118;19;20007;-58
2023/01/02 00:24:46;;;;;;;0.00;0.00;;;;;;;5.26;79.82;100323.41;7361953;19;20014;-57
2023/01/02 00:27:13;;;;;;;0.00;0.00;;;;;;;5.30;79.97;100335.47;7362969;19;20038;-57
2023/01/02 00:29:38;;;;;;;0.00;0.00;;;;;;;5.30;79.92;100326.84;7361992;19;20857;-58
2023/01/02 00:32:04;;;;;;;0.00;0.00;;;;;;;5.29;79.77;100327.72;7364471;19;20034;-57
2023/01/02 00:34:29;;;;;;;0.00;0.00;;;;;;;5.28;80.18;100332.03;7362891;19;20013;-58
2023/01/02 00:36:55;;;;;;;0.00;0.00;;;;;;;5.26;79.94;100328.59;7365100;19;20414;-58
2023/01/02 00:39:20;;;;;;;0.00;0.00;;;;;;;5.25;80.05;100337.22;7364198;19;20014;-58
2023/01/02 00:41:46;;;;;;;0.10;0.10;;;;;;;5.24;79.76;100339.84;7364359;19;20054;-58
2023/01/02 00:44:11;;;;;;;0.10;0.10;;;;;;;5.22;80.10;100342.44;7361245;19;20014;-58
2023/01/02 00:46:36;;;;;;;0.00;0.00;;;;;;;5.19;79.96;100347.63;7362188;19;20018;-58
2023/01/02 00:49:02;;;;;;;0.00;0.00;;;;;;;5.17;79.79;100349.34;7363991;19;20341;-59
2023/01/02 00:51:27;;;;;;;0.00;0.00;;;;;;;5.15;80.02;100353.69;7364304;19;24488;-59
2023/01/02 00:53:53;;;;;;;0.00;0.00;;;;;;;5.13;79.95;100358.03;7359026;19;20837;-58
2023/01/02 00:56:18;;;;;;;0.00;0.00;;;;;;;5.10;79.82;100358.88;7354118;19;20034;-59
2023/01/02 00:58:43;;;;;;;0.00;0.00;;;;;;;5.08;80.04;100370.13;7351569;19;20010;-58
2023/01/02 01:01:09;;;;;;;0.05;0.05;;;;;;;5.06;80.12;100372.69;7359717;19;20018;-58
2023/01/02 01:03:34;;;;;;;0.10;0.10;;;;;;;5.07;79.84;100368.38;7357914;19;20113;-58
2023/01/02 01:06:06;;;;;;;0.00;0.00;;;;;;;5.09;80.10;100374.44;7354470;19;20368;-58
2023/01/02 01:08:33;;;;;;;0.10;0.10;;;;;;;5.03;80.01;100367.56;7352458;19;20023;-58
2023/01/02 01:11:07;;;;;;;0.00;0.00;;;;;;;5.09;79.79;100374.44;7352116;19;20018;-58
2023/01/02 01:13:32;;;;;;;0.00;0.00;;;;;;;5.06;79.93;100382.19;7362340;19;20579;-58
2023/01/02 01:16:13;;;;;;;0.00;0.00;;;;;;;5.07;79.91;100377.03;7356295;19;20021;-58
2023/01/02 01:18:38;;;;;;;0.05;0.05;;;;;;;5.04;79.83;100383.94;7354723;19;20074;-58
2023/01/02 01:21:09;;;;;;;0.00;0.00;;;;;;;5.04;79.72;100389.13;7356892;19;22461;-59
2023/01/02 01:23:34;;;;;;;0.00;0.00;;;;;;;5.02;79.74;100396.91;7356790;19;20081;-58
2023/01/02 01:26:03;;;;;;;0.00;0.00;;;;;;;5.02;79.94;100391.72;7356475;19;20544;-58
2023/01/02 01:28:29;;;;;;;0.10;0.10;;;;;;;5.00;79.84;100397.75;7362567;19;20804;-58
2023/01/02 01:30:54;;;;;;;0.10;0.10;;;;;;;4.90;80.02;100379.69;7364121;19;20165;-58
2023/01/02 01:33:19;;;;;;;0.00;0.00;;;;;;;5.02;80.18;100396.03;7361239;19;20007;-58
2023/01/02 01:35:45;;;;;;;0.00;0.00;;;;;;;5.02;80.12;100396.03;7366123;19;20010;-58
2023/01/02 01:38:10;;;;;;;0.10;0.10;;;;;;;5.04;80.36;100409.81;7358192;19;20015;-58
2023/01/02 01:40:39;;;;;;;0.10;0.10;;;;;;;5.06;80.34;100413.25;7365772;19;20014;-58
2023/01/02 01:43:28;;;;;;;0.00;0.00;;;;;;;5.07;80.33;100410.69;7360713;19;20010;-58
2023/01/02 01:45:54;;;;;;;0.00;0.00;;;;;;;5.07;80.37;100422.72;7362718;19;20064;-59
2023/01/02 01:48:24;;;;;;;0.00;0.00;;;;;;;5.03;80.33;100413.28;7363988;19;21161;-58
2023/01/02 01:50:50;;;;;;;0.00;0.00;;;;;;;5.09;80.30;100423.59;7362849;19;20011;-58
2023/01/02 01:53:18;;;;;;;0.00;0.00;;;;;;;5.12;80.00;100426.16;7362003;19;21033;-59
2023/01/02 01:55:51;;;;;;;0.10;0.10;;;;;;;5.15;80.33;100426.16;7363383;19;20033;-58
2023/01/02 01:58:25;;;;;;;0.00;0.00;;;;;;;5.14;80.04;100421.84;7364221;19;20010;-58
2023/01/02 02:00:51;;;;;;;0.00;0.00;;;;;;;5.16;80.28;100425.28;7360625;19;20003;-58
2023/01/02 02:03:22;;;;;;;0.00;0.00;;;;;;;5.18;80.09;100426.16;7364708;19;20022;-58
2023/01/02 02:05:47;;;;;;;0.00;0.00;;;;;;;5.17;79.93;100427.00;7360367;19;20542;-59
2023/01/02 02:08:25;;;;;;;0.00;0.00;;;;;;;5.19;79.97;100435.63;7365317;19;20022;-59
2023/01/02 02:10:53;;;;;;;0.10;0.10;;;;;;;5.17;79.96;100447.69;7357865;19;20010;-59
2023/01/02 02:13:19;;;;;;;;;;;;;;;5.19;80.23;100456.34;7361041;19;20097;-58
2023/01/02 02:16:02;;;;;;;0.00;0.00;;;;;;;5.18;80.25;100464.97;7364792;19;19982;-58
2023/01/02 02:18:49;;;;;;;0.00;0.00;;;;;;;5.17;79.97;100458.06;7362392;19;20115;-58
2023/01/02 02:21:33;;;;;;;0.10;0.10;;;;;;;5.13;80.13;100461.56;7362559;19;20025;-58
2023/01/02 02:24:13;;;;;;;0.05;0.05;;;;;;;5.09;80.17;100475.38;7364614;19;20031;-58
2023/01/02 02:26:56;;;;;;;0.00;0.00;;;;;;;5.07;79.85;100483.16;7360561;19;20014;-59
2023/01/02 02:29:47;;;;;;;0.10;0.10;;;;;;;5.05;79.73;100484.00;7364500;19;20014;-58
2023/01/02 02:32:28;;;;;;;0.10;0.10;;;;;;;5.02;79.71;100494.34;7361178;19;20556;-58
2023/01/02 02:35:07;;;;;;;0.00;0.00;;;;;;;4.97;80.04;100511.63;7362872;19;20794;-58
2023/01/02 02:37:56;;;;;;;0.00;0.00;;;;;;;4.93;79.69;100515.97;7362371;19;20010;-57
2023/01/02 02:40:47;;;;;;;0.00;0.00;;;;;;;4.90;79.89;100511.66;7358758;19;20082;-59
2023/01/02 02:43:27;;;;;;;0.00;0.00;;;;;;;4.90;79.83;100522.00;7260088;19;2004300;-58
2023/01/02 02:46:03;;;;;;;0.05;0.05;;;;;;;4.90;79.97;100522.00;7362703;19;20034;-58
2023/01/02 02:49:13;;;;;;;0.05;0.05;;;;;;;4.88;79.96;100528.91;7361514;19;20006;-58
2023/01/02 02:51:54;;;;;;;0.10;0.10;;;;;;;4.78;79.85;100518.59;7260713;19;2004381;-58
2023/01/02 02:54:38;;;;;;;0.00;0.00;;;;;;;4.89;80.01;100538.38;7359201;19;20014;-58
2023/01/02 02:57:07;;;;;;;0.08;0.08;;;;;;;4.84;80.19;100527.19;7361900;19;20034;-58
2023/01/02 02:59:35;;;;;;;0.00;0.00;;;;;;;4.89;79.95;100540.97;7347920;19;20026;-58
2023/01/02 03:02:02;;;;;;;0.10;0.10;;;;;;;4.77;79.70;100515.16;7358001;19;20014;-58
2023/01/02 03:04:27;;;;;;;0.10;0.10;;;;;;;4.87;79.62;100541.84;7361150;19;20017;-58
2023/01/02 03:07:08;;;;;;;0.10;0.10;;;;;;;4.89;79.84;100533.22;7361248;19;20006;-58
2023/01/02 03:09:56;;;;;;;0.00;0.00;;;;;;;4.76;80.13;100515.97;7357676;19;20029;-56
2023/01/02 03:12:34;;;;;;;0.00;0.00;;;;;;;4.87;79.87;100537.53;7361719;19;20014;-59
2023/01/02 03:15:08;;;;;;;0.00;0.00;;;;;;;4.87;80.01;100537.53;7361095;19;20450;-59
2023/01/02 03:17:51;;;;;;;0.00;0.00;;;;;;;4.90;80.10;100541.84;7360977;19;20584;-59
2023/01/02 03:20:21;;;;;;;0.00;0.00;;;;;;;4.88;79.84;100541.84;7361219;19;20090;-58
2023/01/02 03:22:52;;;;;;;0.00;0.00;;;;;;;4.89;80.15;100540.13;7357322;19;20014;-59
2023/01/02 03:25:19;;;;;;;0.00;0.00;;;;;;;4.89;80.31;100551.31;7361544;19;20383;-59
2023/01/02 03:27:48;;;;;;;0.00;0.00;;;;;;;4.86;80.28;100543.56;7358792;19;20011;-58
2023/01/02 03:30:18;;;;;;;0.05;0.05;;;;;;;4.91;80.07;100551.31;7360856;19;20015;-59
2023/01/02 03:32:54;;;;;;;0.00;0.00;;;;;;;4.92;80.00;100553.91;7355410;19;20011;-59
2023/01/02 03:35:25;;;;;;;0.10;0.10;;;;;;;4.91;80.17;100559.94;7353459;19;20022;-58
2023/01/02 03:37:54;;;;;;;0.10;0.10;;;;;;;4.91;80.15;100567.69;7357588;19;20035;-58
2023/01/02 03:40:43;;;;;;;0.00;0.00;;;;;;;4.94;79.75;100570.28;7360189;19;20030;-58
2023/01/02 03:43:17;;;;;;;0.00;0.00;;;;;;;4.90;79.80;100584.09;7357023;19;20066;-56
2023/01/02 03:45:49;;;;;;;0.00;0.00;;;;;;;4.92;80.07;100587.56;7361784;19;20010;-57
2023/01/02 03:48:40;;;;;;;0.00;0.00;;;;;;;4.94;79.94;100596.16;7356098;19;20062;-58
2023/01/02 03:51:06;;;;;;;0.00;0.00;;;;;;;4.80;80.22;100587.56;7359868;19;20011;-58
2023/01/02 03:53:35;;;;;;;0.10;0.10;;;;;;;4.92;79.84;100607.41;7359127;19;20010;-57
2023/01/02 03:56:19;;;;;;;0.10;0.10;;;;;;;4.94;79.99;100605.66;7360968;19;20021;-58
2023/01/02 03:59:06;;;;;;;0.10;0.10;;;;;;;4.92;79.91;100613.44;7363122;19;20006;-58
2023/01/02 04:01:50;;;;;;;0.03;0.03;;;;;;;4.92;80.08;100618.59;7365835;19;20355;-58
2023/01/02 04:04:56;;;;;;;0.10;0.10;;;;;;;4.92;79.80;100617.75;7347535;19;20003;-59
2023/01/02 04:07:35;;;;;;;0.00;0.00;;;;;;;4.82;80.05;100603.97;7260098;19;2004421;-58
2023/01/02 04:10:02;;;;;;;0.10;0.10;;;;;;;4.92;80.51;100618.59;7365222;19;20510;-58
2023/01/02 04:12:31;;;;;;;0.00;0.00;;;;;;;4.93;80.09;100622.06;7367441;19;20089;-58
2023/01/02 04:15:10;;;;;;;0.00;0.00;;;;;;;4.97;80.22;100635.81;7364182;19;20010;-58
2023/01/02 04:17:57;;;;;;;0.05;0.05;;;;;;;4.94;80.13;100632.38;7365415;19;20018;-58
2023/01/02 04:20:28;;;;;;;0.00;0.00;;;;;;;4.97;80.28;100635.81;7349314;19;20002;-58
2023/01/02 04:22:59;;;;;;;0.10;0.10;;;;;;;4.98;80.21;100640.16;7360833;19;20604;-58
2023/01/02 04:25:32;;;;;;;0.10;0.10;;;;;;;5.00;80.17;100638.44;7363327;19;20010;-58
2023/01/02 04:28:11;;;;;;;0.10;0.10;;;;;;;5.01;80.53;100647.91;7364257;19;20010;-59
2023/01/02 04:30:42;;;;;;;0.00;0.00;;;;;;;5.02;80.20;100644.44;7366975;19;20018;-58
2023/01/02 04:33:11;;;;;;;0.00;0.00;;;;;;;5.02;80.68;100644.44;7366223;19;20014;-59
2023/01/02 04:35:36;;;;;;;0.00;0.00;;;;;;;5.02;80.51;100649.63;7366037;19;20010;-58
2023/01/02 04:38:10;;;;;;;0.00;0.00;;;;;;;5.03;80.34;100653.97;7366439;19;20021;-58
2023/01/02 04:40:36;;;;;;;0.10;0.10;;;;;;;4.97;80.48;100646.19;7365686;19;20716;-58
2023/01/02 04:43:14;;;;;;;0.10;0.10;;;;;;;5.04;80.17;100647.91;7364827;19;20028;-58
2023/01/02 04:45:39;;;;;;;0.10;0.10;;;;;;;5.01;80.66;100650.50;7365980;19;20569;-58
2023/01/02 04:48:05;;;;;;;0.10;0.10;;;;;;;5.05;80.36;100658.25;7364519;19;20074;-59
2023/01/02 04:50:30;;;;;;;0.00;0.00;;;;;;;5.04;80.47;100659.13;7362321;19;20018;-59
2023/01/02 04:52:56;;;;;;;0.00;0.00;;;;;;;5.04;80.43;100659.13;7366300;19;20494;-58
2023/01/02 04:55:21;;;;;;;0.00;0.00;;;;;;;5.06;80.41;100661.69;7363179;19;20687;-58
2023/01/02 04:57:46;;;;;;;0.00;0.00;;;;;;;5.07;80.52;100661.72;7361324;19;20010;-58
2023/01/02 05:00:12;;;;;;;0.00;0.00;;;;;;;5.10;80.66;100673.78;7363709;19;20018;-59
2023/01/02 05:02:38;;;;;;;0.10;0.10;;;;;;;5.09;80.51;100677.25;7365447;19;20022;-59
2023/01/02 05:05:05;;;;;;;0.10;0.10;;;;;;;5.14;80.24;100675.50;7363826;19;20037;-59
2023/01/02 05:07:35;;;;;;;0.00;0.00;;;;;;;5.04;80.39;100658.28;7364390;19;20032;-58
2023/01/02 05:10:01;;;;;;;0.10;0.10;;;;;;;5.14;80.72;100685.88;7361552;19;20007;-57
2023/01/02 05:12:26;;;;;;;0.05;0.05;;;;;;;5.11;80.23;100680.69;7365711;19;20007;-58
2023/01/02 05:14:52;;;;;;;0.10;0.10;;;;;;;5.14;80.81;100685.88;7357573;19;20040;-58
2023/01/02 05:17:17;;;;;;;0.10;0.10;;;;;;;5.16;80.20;100691.91;7363933;19;20371;-58
2023/01/02 05:19:42;;;;;;;0.10;0.10;;;;;;;5.17;80.52;100691.03;7363919;19;20022;-58
2023/01/02 05:24:55;;;;;;;0.00;0.00;;;;;;;5.18;80.25;100692.78;7264105;19;2004450;-59
2023/01/02 05:27:20;;;;;;;0.00;0.00;;;;;;;5.19;80.19;100694.50;7360492;19;22316;-59
2023/01/02 05:29:45;;;;;;;0.10;0.10;;;;;;;5.18;80.45;100692.78;7363507;19;20021;-58
2023/01/02 05:32:11;;;;;;;0.00;0.00;;;;;;;5.20;80.22;100701.38;7362351;19;20598;-58
2023/01/02 05:34:36;;;;;;;0.00;0.00;;;;;;;5.11;80.53;100691.03;7361276;19;20011;-59
2023/01/02 05:37:01;;;;;;;0.10;0.10;;;;;;;5.20;80.61;100706.56;7363152;19;20034;-58
2023/01/02 05:39:27;;;;;;;0.00;0.00;;;;;;;5.21;80.41;100710.88;7363077;19;20652;-58
2023/01/02 05:41:52;;;;;;;0.05;0.05;;;;;;;5.20;80.36;100706.56;7353566;19;20017;-59
2023/01/02 05:44:18;;;;;;;0.10;0.10;;;;;;;5.20;80.20;100722.97;7365817;19;20016;-58
2023/01/02 05:46:43;;;;;;;0.10;0.10;;;;;;;5.20;80.22;100727.28;7363516;19;20667;-58
2023/01/02 05:49:10;;;;;;;0.10;0.10;;;;;;;5.13;80.72;100717.81;7364392;19;20530;-59
2023/01/02 05:51:36;;;;;;;0.00;0.00;;;;;;;5.19;80.61;100731.59;7364390;19;20916;-58
2023/01/02 05:54:02;;;;;;;0.10;0.10;;;;;;;5.20;80.23;100733.31;7363953;19;20085;-58
2023/01/02 05:56:29;;;;;;;0.10;0.10;;;;;;;5.21;80.14;100739.34;7362087;19;20070;-58
2023/01/02 05:58:55;;;;;;;0.00;0.00;;;;;;;5.18;80.41;100735.06;7364415;19;20782;-58
2023/01/02 06:01:23;;;;;;;0.03;0.03;;;;;;;5.12;80.16;100734.16;7362551;19;20025;-58
2023/01/02 06:03:54;;;;;;;0.10;0.10;;;;;;;5.16;80.22;100756.59;7361913;19;20031;-56
2023/01/02 06:06:21;;;;;;;0.10;0.10;;;;;;;5.14;80.40;100748.00;7363568;19;20022;-56
2023/01/02 06:08:47;;;;;;;0.10;0.10;;;;;;;5.13;80.32;100756.63;7365296;19;20021;-58
2023/01/02 06:11:12;;;;;;;0.00;0.00;;;;;;;5.12;80.32;100765.22;7357492;19;20014;-59
2023/01/02 06:13:38;;;;;;;0.10;0.10;;;;;;;5.11;80.14;100771.28;7363986;19;20050;-58
2023/01/02 06:16:05;;;;;;;0.10;0.10;;;;;;;5.10;80.18;100772.16;7359249;19;20042;-58
2023/01/02 06:18:32;;;;;;;0.00;0.00;;;;;;;5.09;80.25;100779.03;7364667;19;20018;-58
2023/01/02 06:21:02;;;;;;;0.10;0.10;;;;;;;5.10;80.09;100782.50;7362597;19;20062;-58
2023/01/02 06:23:28;;;;;;;0.05;0.05;;;;;;;5.05;80.18;100784.22;7358792;19;20086;-58
2023/01/02 06:25:53;;;;;;;0.10;0.10;;;;;;;5.02;80.20;100784.19;7363451;19;20070;-58
2023/01/02 06:28:19;;;;;;;0.00;0.00;;;;;;;4.95;80.52;100784.19;7362151;19;20110;-58
2023/01/02 06:30:45;;;;;;;0.00;0.00;;;;;;;5.05;80.46;100807.50;7362302;19;20007;-58
2023/01/02 06:33:10;;;;;;;0.10;0.10;;;;;;;5.01;80.50;100804.03;7363097;19;20022;-58
2023/01/02 06:35:36;;;;;;;0.00;0.00;;;;;;;5.02;80.27;100808.38;7364175;19;20014;-58
2023/01/02 06:38:01;;;;;;;0.08;0.08;;;;;;;5.00;80.20;100812.66;7359501;19;20006;-58
2023/01/02 06:40:26;;;;;;;0.10;0.10;;;;;;;4.98;80.09;100818.72;7362024;19;20010;-58
2023/01/02 06:42:52;;;;;;;0.08;0.08;;;;;;;4.98;80.68;100823.91;7361022;19;20010;-56
2023/01/02 06:45:17;;;;;;;0.00;0.00;;;;;;;4.97;80.40;100824.72;7363769;19;20259;-58
2023/01/02 06:47:43;;;;;;;0.00;0.00;;;;;;;4.97;80.38;100832.50;7356956;19;20023;-58
2023/01/02 06:50:09;;;;;;;0.00;0.00;;;;;;;4.95;80.03;100823.00;7362075;19;20022;-57
2023/01/02 06:52:34;;;;;;;0.10;0.10;;;;;;;4.98;80.28;100832.53;7361494;19;20014;-57
2023/01/02 06:54:59;;;;;;;0.10;0.10;;;;;;;4.98;80.46;100829.06;7361678;19;20017;-59
2023/01/02 06:57:28;;;;;;;0.10;0.10;;;;;;;4.97;80.09;100832.50;7356910;19;20535;-58
2023/01/02 06:59:53;;;;;;;0.10;0.10;;;;;;;4.94;80.11;100836.81;7352799;19;20023;-58
2023/01/02 07:02:19;;;;;;;0.10;0.10;;;;;;;4.92;80.17;100835.97;7360603;19;20015;-58
2023/01/02 07:04:44;;;;;;;0.10;0.10;;;;;;;4.92;80.27;100840.28;7362040;19;20486;-57
2023/01/02 07:07:10;;;;;;;0.10;0.10;;;;;;;4.95;80.39;100841.13;7359374;19;20015;-57
2023/01/02 07:09:35;;;;;;;0.10;0.10;;;;;;;4.94;80.64;100842.00;7346039;19;21836;-58
2023/01/02 07:12:00;;;;;;;0.00;0.00;;;;;;;4.90;80.22;100829.91;7364047;19;20038;-58
2023/01/02 07:14:26;;;;;;;0.10;0.10;;;;;;;4.95;80.22;100835.09;7357437;19;20023;-58
2023/01/02 07:16:51;;;;;;;0.08;0.08;;;;;;;4.95;80.32;100845.44;7358491;19;20557;-58
2023/01/02 07:19:17;;;;;;;0.00;0.00;;;;;;;4.89;80.32;100832.50;7358801;19;20034;-59
2023/01/02 07:21:43;;;;;;;0.00;0.00;;;;;;;4.94;80.11;100848.91;7362905;19;20470;-58
2023/01/02 07:24:14;;;;;;;0.10;0.10;;;;;;;4.94;79.97;100860.09;7358487;19;20681;-58
2023/01/02 07:26:40;;;;;;;0.10;0.10;;;;;;;4.92;80.17;100861.84;7338930;19;20106;-57
2023/01/02 07:29:06;;;;;;;0.00;0.00;;;;;;;4.92;80.44;100866.16;7358596;19;20018;-58
2023/01/02 07:31:31;;;;;;;0.10;0.10;;;;;;;4.88;80.04;100870.44;7357665;19;20010;-58
2023/01/02 07:33:57;;;;;;;0.10;0.10;;;;;;;4.89;80.50;100876.47;7358855;19;21967;-58
2023/01/02 07:36:23;;;;;;;0.00;0.00;;;;;;;4.88;80.34;100878.22;7360697;19;20074;-58
2023/01/02 07:38:52;;;;;;;0.10;0.10;;;;;;;4.89;80.39;100877.34;7360699;19;20006;-58
2023/01/02 07:41:21;;;;;;;0.00;0.00;;;;;;;4.88;80.42;100875.63;7362021;19;20036;-58
2023/01/02 07:43:47;;;;;;;0.10;0.10;;;;;;;4.87;80.13;100879.06;7355912;19;20553;-58
2023/01/02 07:46:14;;;;;;;0.10;0.10;;;;;;;4.89;80.34;100881.66;7360710;19;20014;-58
2023/01/02 07:48:40;;;;;;;0.10;0.10;;;;;;;4.88;80.16;100890.28;7354161;19;20019;-58
2023/01/02 07:51:06;;;;;;;0.00;0.00;;;;;;;4.76;80.17;100872.97;7360028;19;20032;-58
2023/01/02 07:53:32;;;;;;;0.00;0.00;;;;;;;4.76;80.33;100880.72;7355579;19;20006;-58
2023/01/02 07:56:00;;;;;;;0.10;0.10;;;;;;;4.90;80.45;100904.94;7360688;19;20176;-58
2023/01/02 07:58:26;;;;;;;0.00;0.00;;;;;;;4.92;80.60;100903.25;7356591;19;20002;-56
2023/01/02 08:00:53;;;;;;;0.10;0.10;;;;;;;4.90;80.61;100899.75;7360912;19;20026;-59
2023/01/02 08:03:19;;;;;;;0.10;0.10;;;;;;;4.92;80.65;100903.25;7359290;19;20025;-58
2023/01/02 08:05:44;;;;;;;0.10;0.10;;;;;;;4.93;80.29;100912.72;7358375;19;20007;-58
2023/01/02 08:08:09;;;;;;;0.10;0.10;;;;;;;4.92;80.72;100913.59;7354500;19;20022;-58
2023/01/02 08:10:36;;;;;;;0.10;0.10;;;;;;;4.94;80.44;100917.03;7358191;19;20014;-58
2023/01/02 08:13:02;;;;;;;0.08;0.08;;;;;;;4.97;80.49;100923.06;7357880;19;20048;-58
2023/01/02 08:15:31;;;;;;;0.00;0.00;;;;;;;4.82;80.45;100906.66;7356002;19;20794;-57
2023/01/02 08:17:57;;;;;;;0.00;0.00;;;;;;;4.93;80.55;100927.41;7356753;19;20006;-58
2023/01/02 08:20:24;;;;;;;0.00;0.00;;;;;;;4.94;80.36;100931.69;7358128;19;20014;-58
2023/01/02 08:22:49;;;;;;;0.00;0.00;;;;;;;4.92;80.44;100934.28;7356981;19;20921;-58
2023/01/02 08:25:15;;;;;;;0.00;0.00;;;;;;;4.94;80.58;100937.75;7358782;19;20014;-58
2023/01/02 08:27:40;;;;;;;0.10;0.10;;;;;;;4.97;80.45;100938.59;7352973;19;20007;-58
2023/01/02 08:30:06;;;;;;;0.05;0.05;;;;;;;4.98;80.42;100942.94;7357336;19;20006;-58
2023/01/02 08:32:38;;;;;;;0.10;0.10;;;;;;;4.98;80.49;100942.94;7355722;19;20351;-58
2023/01/02 08:35:05;;;;;;;0.00;0.00;;;;;;;4.93;80.39;100946.38;7356761;19;20010;-57
2023/01/02 08:37:31;;;;;;;0.00;0.00;;;;;;;4.96;80.31;100955.84;7353577;19;20030;-58
2023/01/02 08:39:56;;;;;;;0.00;0.00;;;;;;;4.94;80.08;100953.28;7358397;19;22264;-58
2023/01/02 08:42:21;;;;;;;0.00;0.00;;;;;;;4.83;80.04;100939.44;7362031;19;20014;-59
2023/01/02 08:44:47;;;;;;;0.00;0.00;;;;;;;4.91;80.07;100957.56;7362536;19;21367;-56
2023/01/02 08:47:12;;;;;;;0.00;0.00;;;;;;;4.84;80.33;100956.69;7365775;19;20041;-58
2023/01/02 08:49:38;;;;;;;0.10;0.10;;;;;;;4.88;79.97;100978.25;7356128;19;20015;-57
2023/01/02 08:52:03;;;;;;;0.10;0.10;;;;;;;4.88;80.08;100984.31;7366543;19;20018;-58
2023/01/02 08:54:29;;;;;;;0.10;0.10;;;;;;;4.85;79.97;100984.28;7357267;19;20047;-57
2023/01/02 08:56:54;;;;;;;0.10;0.10;;;;;;;4.84;80.04;100992.03;7363177;19;20798;-58
2023/01/02 08:59:22;;;;;;;0.05;0.05;;;;;;;4.86;79.96;100985.13;7360066;19;20077;-58
2023/01/02 09:01:48;;;;;;;0.10;0.10;;;;;;;4.85;80.21;100993.75;7364606;19;20086;-58
2023/01/02 09:04:13;;;;;;;0.10;0.10;;;;;;;4.85;80.00;100997.22;7362546;19;20407;-58
2023/01/02 09:06:39;;;;;;;0.00;0.00;;;;;;;4.85;80.04;101004.97;7347267;19;20761;-58
2023/01/02 09:09:05;;;;;;;0.10;0.10;;;;;;;4.82;79.85;100999.81;7364506;19;20018;-59
2023/01/02 09:11:35;;;;;;;0.10;0.10;;;;;;;4.82;80.02;100999.81;7365144;19;20022;-58
2023/01/02 09:14:01;;;;;;;0.10;0.10;;;;;;;4.78;79.81;101004.94;7363872;19;20015;-56
2023/01/02 09:16:28;;;;;;;0.00;0.00;;;;;;;4.75;80.08;101007.50;7364477;19;20042;-56
2023/01/02 09:18:58;;;;;;;0.00;0.00;;;;;;;4.74;79.91;101017.00;7364299;19;20736;-58
2023/01/02 09:21:23;;;;;;;0.10;0.10;;;;;;;4.70;79.72;101023.00;7360594;19;20011;-59
2023/01/02 09:23:49;;;;;;;0.00;0.00;;;;;;;4.66;79.46;101024.72;7357258;19;20646;-58
2023/01/02 09:26:14;;;;;;;0.10;0.10;;;;;;;4.62;79.64;101022.09;7353922;19;20064;-59
2023/01/02 09:28:40;;;;;;;0.00;0.00;;;;;;;4.56;79.60;101027.19;7365953;19;20051;-58
2023/01/02 09:31:11;;;;;;;0.00;0.00;;;;;;;4.47;80.05;101019.41;7350946;19;20015;-58
2023/01/02 09:33:37;;;;;;;0.10;0.10;;;;;;;4.55;79.80;101035.81;7360989;19;20025;-58
2023/01/02 09:36:05;;;;;;;0.00;0.00;;;;;;;4.54;79.46;101039.25;7362555;19;23032;-58
2023/01/02 09:38:31;;;;;;;0.00;0.00;;;;;;;4.38;79.59;101018.47;7364072;19;20577;-58
2023/01/02 09:40:59;;;;;;;0.08;0.08;;;;;;;4.48;79.92;101044.41;7365804;19;20010;-58
2023/01/02 09:43:36;;;;;;;0.03;0.03;;;;;;;4.50;79.85;101053.03;7361828;19;20010;-58
2023/01/02 09:46:05;;;;;;;0.00;0.00;;;;;;;4.41;79.72;101044.34;7358864;19;20131;-59
2023/01/02 09:48:35;;;;;;;0.08;0.08;;;;;;;4.34;79.46;101037.38;7359915;19;20036;-58
2023/01/02 09:51:04;;;;;;;0.00;0.00;;;;;;;4.39;79.80;101053.81;7360032;19;20010;-57
2023/01/02 09:53:31;;;;;;;0.10;0.10;;;;;;;4.43;79.44;101065.91;7356181;19;20363;-55
2023/01/02 09:56:19;;;;;;;0.10;0.10;;;;;;;4.45;79.31;101068.50;7362467;19;20498;-57
2023/01/02 09:58:52;;;;;;;0.00;0.00;;;;;;;4.45;79.59;101071.09;7259923;19;2004353;-58
2023/01/02 10:01:39;;;;;;;0.00;0.00;;;;;;;4.50;79.66;101078.88;7359959;19;20018;-58
2023/01/02 10:04:41;;;;;;;0.10;0.10;;;;;;;4.54;79.83;101084.09;7364574;19;20754;-58
2023/01/02 10:07:46;;;;;;;0.10;0.10;;;;;;;4.63;80.27;101085.91;7260131;19;2004534;-58
2023/01/02 10:10:37;;;;;;;0.00;0.00;;;;;;;4.72;80.47;101092.88;7257410;19;2004763;-57
2023/01/02 10:13:02;;;;;;;0.10;0.10;;;;;;;4.81;80.42;101093.78;7357112;19;20011;-58
2023/01/02 10:15:30;;;;;;;0.10;0.10;;;;;;;4.94;80.81;101093.00;7355981;19;20027;-58
2023/01/02 10:18:03;;;;;;;0.00;0.00;;;;;;;5.10;80.81;101099.16;7356330;19;20006;-59
2023/01/02 10:20:34;;;;;;;0.00;0.00;;;;;;;5.29;80.51;101100.13;7363638;19;20010;-57
2023/01/02 10:23:04;;;;;;;0.00;0.00;;;;;;;5.50;81.12;101106.28;7354827;19;20016;-57
2023/01/02 10:25:38;;;;;;;0.00;0.00;;;;;;;5.75;81.17;101100.31;7357561;19;20015;-58
2023/01/02 10:28:15;;;;;;;0.05;0.05;;;;;;;5.96;80.63;101103.00;7350883;19;20013;-58
2023/01/02 10:30:47;;;;;;;0.00;0.00;;;;;;;6.25;80.50;101110.00;7358936;19;20023;-56
2023/01/02 10:33:25;;;;;;;0.00;0.00;;;;;;;6.48;80.92;101116.06;7361286;19;20027;-58
2023/01/02 10:35:55;;;;;;;0.00;0.00;;;;;;;6.69;80.89;101110.03;7356204;19;20018;-59
2023/01/02 10:38:21;;;;;;;0.00;0.00;;;;;;;6.82;80.18;101115.19;7360834;19;20007;-58
2023/01/02 10:40:49;;;;;;;0.10;0.10;;;;;;;6.93;79.76;101119.50;7354201;19;20105;-58
2023/01/02 10:43:16;;;;;;;0.00;0.00;;;;;;;7.01;79.28;101133.34;7351102;19;20554;-59
2023/01/02 10:45:42;;;;;;;0.10;0.10;;;;;;;6.98;79.30;101106.53;7340312;19;20014;-58
2023/01/02 10:48:11;;;;;;;0.00;0.00;;;;;;;7.21;79.77;101119.47;7329231;19;20040;-58
2023/01/02 10:50:42;;;;;;;0.08;0.08;;;;;;;7.25;79.49;101121.22;7347788;19;20102;-58
2023/01/02 10:53:32;;;;;;;0.00;0.00;;;;;;;7.31;79.67;101120.31;7345161;19;20593;-59
2023/01/02 10:56:13;;;;;;;0.00;0.00;;;;;;;7.35;79.57;101125.50;7357408;19;20074;-59
2023/01/02 10:58:45;;;;;;;0.10;0.10;;;;;;;7.39;79.16;101128.94;7339203;19;20098;-59
2023/01/02 11:01:17;;;;;;;0.00;0.00;;;;;;;7.39;78.95;101131.53;7360474;19;20021;-58
2023/01/02 11:03:43;;;;;;;0.10;0.10;;;;;;;7.47;78.98;101137.59;7362186;19;20078;-58
2023/01/02 11:06:20;;;;;;;0.10;0.10;;;;;;;7.52;78.75;101136.72;7354435;19;20082;-59
2023/01/02 11:08:58;;;;;;;0.00;0.00;;;;;;;7.52;78.73;101141.91;7355120;19;20090;-59
2023/01/02 11:11:26;;;;;;;0.00;0.00;;;;;;;7.49;78.49;101131.50;7356567;19;20018;-59
2023/01/02 11:13:56;;;;;;;0.00;0.00;;;;;;;7.48;78.65;101140.19;7361010;19;20510;-59
2023/01/02 11:16:24;;;;;;;0.05;0.05;;;;;;;7.51;79.14;101149.72;7357526;19;20796;-58
2023/01/02 11:18:49;;;;;;;;;;;;;;;7.58;79.46;101143.63;7353844;19;20021;-59
2023/01/02 11:21:28;;;;;;;0.10;0.10;;;;;;;7.64;79.09;101145.31;7357064;19;19918;-58
2023/01/02 11:24:03;;;;;;;0.00;0.00;;;;;;;7.69;79.05;101143.56;7360084;19;20448;-59
2023/01/02 11:26:31;;;;;;;0.03;0.03;;;;;;;7.71;78.85;101136.66;7361187;19;20006;-58
2023/01/02 11:29:12;;;;;;;0.03;0.03;;;;;;;7.82;79.67;101136.59;7360439;19;20010;-58
2023/01/02 11:31:50;;;;;;;0.00;0.00;;;;;;;7.92;79.35;101136.56;7363156;19;20006;-59
2023/01/02 11:34:23;;;;;;;;;;;;;;;8.00;79.96;101139.09;7352649;19;20007;-57
2023/01/02 11:37:15;;;;;;;0.00;0.00;;;;;;;8.02;78.90;101135.63;7356155;19;19939;-58
2023/01/02 11:39:42;;;;;;;0.00;0.00;;;;;;;7.99;78.47;101143.44;7254654;19;2004411;-59
2023/01/02 11:45:12;;;;;;;0.00;0.00;;;;;;;8.00;78.65;101141.69;7355938;19;20017;-58
2023/01/02 11:47:54;;;;;;;0.10;0.10;;;;;;;8.02;78.40;101140.84;7352773;19;20010;-58
2023/01/02 11:50:21;;;;;;;0.10;0.10;;;;;;;7.96;78.84;101138.28;7354601;19;20021;-58
2023/01/02 11:52:53;;;;;;;0.00;0.00;;;;;;;7.98;79.21;101141.72;7353090;19;20457;-58